sensor_id;sensor_type;location;lat;lon;timestamp;temperature;humidity
60309;DHT22;50313;52.894;6.492;2023-04-06T00:00:41;1.90;99.90
60309;DHT22;50313;52.894;6.492;2023-04-06T00:03:17;1.90;99.90
60309;DHT22;50313;52.894;6.492;2023-04-06T00:05:57;1.90;99.90
60309;DHT22;50313;52.894;6.492;2023-04-06T00:09:09;1.90;99.90
60309;DHT22;50313;52.894;6.492;2023-04-06T00:11:53;1.80;99.90
60309;DHT22;50313;52.894;6.492;2023-04-06T00:15:05;1.90;99.90
60309;DHT22;50313;52.894;6.492;2023-04-06T00:17:53;1.90;99.90
60309;DHT22;50313;52.894;6.492;2023-04-06T00:20:28;1.80;99.90
60309;DHT22;50313;52.894;6.492;2023-04-06T00:23:21;1.90;99.90
60309;DHT22;50313;52.894;6.492;2023-04-06T00:26:10;1.90;99.90
60309;DHT22;50313;52.894;6.492;2023-04-06T00:31:28;1.80;99.90
60309;DHT22;50313;52.894;6.492;2023-04-06T00:34:34;1.80;99.90
60309;DHT22;50313;52.894;6.492;2023-04-06T00:37:24;1.70;99.90
60309;DHT22;50313;52.894;6.492;2023-04-06T00:42:44;1.70;99.90
60309;DHT22;50313;52.894;6.492;2023-04-06T00:45:24;1.60;99.90
60309;DHT22;50313;52.894;6.492;2023-04-06T00:48:15;1.60;99.90
60309;DHT22;50313;52.894;6.492;2023-04-06T00:51:07;1.50;99.90
60309;DHT22;50313;52.894;6.492;2023-04-06T00:53:38;1.50;99.90
60309;DHT22;50313;52.894;6.492;2023-04-06T00:59:59;1.50;99.90
60309;DHT22;50313;52.894;6.492;2023-04-06T01:06:08;1.50;99.90
60309;DHT22;50313;52.894;6.492;2023-04-06T01:12:04;1.50;99.90
60309;DHT22;50313;52.894;6.492;2023-04-06T01:15:11;1.50;99.90
60309;DHT22;50313;52.894;6.492;2023-04-06T01:21:01;1.60;99.90
60309;DHT22;50313;52.894;6.492;2023-04-06T01:23:52;1.60;99.90
60309;DHT22;50313;52.894;6.492;2023-04-06T01:26:35;1.60;99.90
60309;DHT22;50313;52.894;6.492;2023-04-06T01:29:13;1.60;99.90
60309;DHT22;50313;52.894;6.492;2023-04-06T01:32:13;1.70;99.90
60309;DHT22;50313;52.894;6.492;2023-04-06T01:34:43;1.60;99.90
60309;DHT22;50313;52.894;6.492;2023-04-06T01:37:30;1.60;99.90
60309;DHT22;50313;52.894;6.492;2023-04-06T01:40:12;1.60;99.90
60309;DHT22;50313;52.894;6.492;2023-04-06T01:42:52;1.70;99.90
60309;DHT22;50313;52.894;6.492;2023-04-06T01:45:36;1.60;99.90
60309;DHT22;50313;52.894;6.492;2023-04-06T01:48:08;1.50;99.90
60309;DHT22;50313;52.894;6.492;2023-04-06T01:50:40;1.50;99.90
60309;DHT22;50313;52.894;6.492;2023-04-06T01:53:27;1.50;99.90
60309;DHT22;50313;52.894;6.492;2023-04-06T01:56:13;1.50;99.90
60309;DHT22;50313;52.894;6.492;2023-04-06T01:59:15;1.50;99.90
60309;DHT22;50313;52.894;6.492;2023-04-06T02:01:55;1.50;99.90
60309;DHT22;50313;52.894;6.492;2023-04-06T02:04:46;1.50;99.90
60309;DHT22;50313;52.894;6.492;2023-04-06T02:07:40;1.50;99.90
60309;DHT22;50313;52.894;6.492;2023-04-06T02:13:22;1.20;99.90
60309;DHT22;50313;52.894;6.492;2023-04-06T02:16:10;1.20;99.90
60309;DHT22;50313;52.894;6.492;2023-04-06T02:18:46;1.10;99.90
60309;DHT22;50313;52.894;6.492;2023-04-06T02:21:28;1.10;99.90
60309;DHT22;50313;52.894;6.492;2023-04-06T02:24:10;1.00;99.90
60309;DHT22;50313;52.894;6.492;2023-04-06T02:27:05;0.90;99.90
60309;DHT22;50313;52.894;6.492;2023-04-06T02:30:13;0.90;99.90
60309;DHT22;50313;52.894;6.492;2023-04-06T02:36:04;0.80;99.90
60309;DHT22;50313;52.894;6.492;2023-04-06T02:38:39;0.70;99.90
60309;DHT22;50313;52.894;6.492;2023-04-06T02:41:10;0.80;99.90
60309;DHT22;50313;52.894;6.492;2023-04-06T02:44:06;0.70;99.90
60309;DHT22;50313;52.894;6.492;2023-04-06T02:46:50;0.80;99.90
60309;DHT22;50313;52.894;6.492;2023-04-06T02:49:22;0.80;99.90
60309;DHT22;50313;52.894;6.492;2023-04-06T02:52:08;0.80;99.90
60309;DHT22;50313;52.894;6.492;2023-04-06T02:57:49;0.80;99.90
60309;DHT22;50313;52.894;6.492;2023-04-06T03:00:40;0.90;99.90
60309;DHT22;50313;52.894;6.492;2023-04-06T03:03:16;0.80;99.90
60309;DHT22;50313;52.894;6.492;2023-04-06T03:05:51;0.80;99.90
60309;DHT22;50313;52.894;6.492;2023-04-06T03:08:25;0.80;99.90
60309;DHT22;50313;52.894;6.492;2023-04-06T03:11:16;0.70;99.90
60309;DHT22;50313;52.894;6.492;2023-04-06T03:13:51;0.60;99.90
60309;DHT22;50313;52.894;6.492;2023-04-06T03:16:38;0.60;99.90
60309;DHT22;50313;52.894;6.492;2023-04-06T03:19:25;0.60;99.90
60309;DHT22;50313;52.894;6.492;2023-04-06T03:24:55;0.60;99.90
60309;DHT22;50313;52.894;6.492;2023-04-06T03:27:26;0.50;99.90
60309;DHT22;50313;52.894;6.492;2023-04-06T03:30:13;0.60;99.90
60309;DHT22;50313;52.894;6.492;2023-04-06T03:32:57;0.60;99.90
60309;DHT22;50313;52.894;6.492;2023-04-06T03:35:51;0.70;99.90
60309;DHT22;50313;52.894;6.492;2023-04-06T03:38:51;0.60;99.90
60309;DHT22;50313;52.894;6.492;2023-04-06T03:41:28;0.60;99.90
60309;DHT22;50313;52.894;6.492;2023-04-06T03:47:43;0.50;99.90
60309;DHT22;50313;52.894;6.492;2023-04-06T03:50:24;0.30;99.90
60309;DHT22;50313;52.894;6.492;2023-04-06T03:53:23;0.30;99.90
60309;DHT22;50313;52.894;6.492;2023-04-06T03:56:12;0.30;99.90
60309;DHT22;50313;52.894;6.492;2023-04-06T03:58:40;0.40;99.90
60309;DHT22;50313;52.894;6.492;2023-04-06T04:01:22;0.40;99.90
60309;DHT22;50313;52.894;6.492;2023-04-06T04:03:55;0.50;99.90
60309;DHT22;50313;52.894;6.492;2023-04-06T04:06:43;0.50;99.90
60309;DHT22;50313;52.894;6.492;2023-04-06T04:09:22;0.50;99.90
60309;DHT22;50313;52.894;6.492;2023-04-06T04:15:16;0.40;99.90
60309;DHT22;50313;52.894;6.492;2023-04-06T04:21:03;0.30;99.90
60309;DHT22;50313;52.894;6.492;2023-04-06T04:23:56;0.40;99.90
60309;DHT22;50313;52.894;6.492;2023-04-06T04:26:29;0.40;99.90
60309;DHT22;50313;52.894;6.492;2023-04-06T04:29:12;0.50;99.90
60309;DHT22;50313;52.894;6.492;2023-04-06T04:31:52;0.50;99.90
60309;DHT22;50313;52.894;6.492;2023-04-06T04:34:48;0.50;99.90
60309;DHT22;50313;52.894;6.492;2023-04-06T04:37:49;0.60;99.90
60309;DHT22;50313;52.894;6.492;2023-04-06T04:43:27;0.60;99.90
60309;DHT22;50313;52.894;6.492;2023-04-06T04:46:36;0.60;99.90
60309;DHT22;50313;52.894;6.492;2023-04-06T04:52:40;0.50;99.90
60309;DHT22;50313;52.894;6.492;2023-04-06T04:59:13;0.50;99.90
60309;DHT22;50313;52.894;6.492;2023-04-06T05:01:52;0.60;99.90
60309;DHT22;50313;52.894;6.492;2023-04-06T05:04:45;0.50;99.90
60309;DHT22;50313;52.894;6.492;2023-04-06T05:07:40;0.60;99.90
60309;DHT22;50313;52.894;6.492;2023-04-06T05:10:35;0.50;99.90
60309;DHT22;50313;52.894;6.492;2023-04-06T05:16:17;0.70;99.90
60309;DHT22;50313;52.894;6.492;2023-04-06T05:19:08;0.70;99.90
60309;DHT22;50313;52.894;6.492;2023-04-06T05:21:56;0.70;99.90
60309;DHT22;50313;52.894;6.492;2023-04-06T05:24:49;0.80;99.90
60309;DHT22;50313;52.894;6.492;2023-04-06T05:27:28;0.80;99.90
60309;DHT22;50313;52.894;6.492;2023-04-06T05:30:21;0.80;99.90
60309;DHT22;50313;52.894;6.492;2023-04-06T05:33:03;0.90;99.90
60309;DHT22;50313;52.894;6.492;2023-04-06T05:35:41;0.90;99.90
60309;DHT22;50313;52.894;6.492;2023-04-06T05:38:15;0.80;99.90
60309;DHT22;50313;52.894;6.492;2023-04-06T05:41:04;0.80;99.90
60309;DHT22;50313;52.894;6.492;2023-04-06T05:43:44;0.80;99.90
60309;DHT22;50313;52.894;6.492;2023-04-06T05:46:13;0.80;99.90
60309;DHT22;50313;52.894;6.492;2023-04-06T05:48:51;0.90;99.90
60309;DHT22;50313;52.894;6.492;2023-04-06T05:51:25;0.90;99.90
60309;DHT22;50313;52.894;6.492;2023-04-06T05:54:04;1.00;99.90
60309;DHT22;50313;52.894;6.492;2023-04-06T05:56:45;1.10;99.90
60309;DHT22;50313;52.894;6.492;2023-04-06T05:59:10;1.20;99.90
60309;DHT22;50313;52.894;6.492;2023-04-06T06:01:45;1.20;99.90
60309;DHT22;50313;52.894;6.492;2023-04-06T06:04:14;1.30;99.90
60309;DHT22;50313;52.894;6.492;2023-04-06T06:06:47;1.30;99.90
60309;DHT22;50313;52.894;6.492;2023-04-06T06:09:20;1.40;99.90
60309;DHT22;50313;52.894;6.492;2023-04-06T06:12:04;1.50;99.90
60309;DHT22;50313;52.894;6.492;2023-04-06T06:14:32;1.60;99.90
60309;DHT22;50313;52.894;6.492;2023-04-06T06:17:36;1.60;99.90
60309;DHT22;50313;52.894;6.492;2023-04-06T06:20:13;1.80;99.90
60309;DHT22;50313;52.894;6.492;2023-04-06T06:22:46;1.90;99.90
60309;DHT22;50313;52.894;6.492;2023-04-06T06:25:14;1.90;99.90
60309;DHT22;50313;52.894;6.492;2023-04-06T06:28:23;2.00;99.90
60309;DHT22;50313;52.894;6.492;2023-04-06T06:30:54;2.00;99.90
60309;DHT22;50313;52.894;6.492;2023-04-06T06:33:31;2.20;99.90
60309;DHT22;50313;52.894;6.492;2023-04-06T06:36:07;2.30;99.90
60309;DHT22;50313;52.894;6.492;2023-04-06T06:38:42;2.30;99.90
60309;DHT22;50313;52.894;6.492;2023-04-06T06:41:30;2.40;99.90
60309;DHT22;50313;52.894;6.492;2023-04-06T06:44:23;2.50;99.90
60309;DHT22;50313;52.894;6.492;2023-04-06T06:46:54;2.60;99.90
60309;DHT22;50313;52.894;6.492;2023-04-06T06:49:39;2.70;99.90
60309;DHT22;50313;52.894;6.492;2023-04-06T06:52:12;2.90;99.90
60309;DHT22;50313;52.894;6.492;2023-04-06T06:54:48;2.90;99.90
60309;DHT22;50313;52.894;6.492;2023-04-06T06:57:48;3.00;99.90
60309;DHT22;50313;52.894;6.492;2023-04-06T07:00:28;3.10;99.90
60309;DHT22;50313;52.894;6.492;2023-04-06T07:03:08;3.30;99.90
60309;DHT22;50313;52.894;6.492;2023-04-06T07:05:52;3.40;99.90
60309;DHT22;50313;52.894;6.492;2023-04-06T07:08:39;3.60;99.90
60309;DHT22;50313;52.894;6.492;2023-04-06T07:11:12;3.80;99.90
60309;DHT22;50313;52.894;6.492;2023-04-06T07:13:55;3.90;99.90
60309;DHT22;50313;52.894;6.492;2023-04-06T07:16:44;4.10;99.90
60309;DHT22;50313;52.894;6.492;2023-04-06T07:19:28;4.30;99.90
60309;DHT22;50313;52.894;6.492;2023-04-06T07:22:09;4.50;99.90
60309;DHT22;50313;52.894;6.492;2023-04-06T07:27:41;4.90;99.90
60309;DHT22;50313;52.894;6.492;2023-04-06T07:30:13;5.00;99.90
60309;DHT22;50313;52.894;6.492;2023-04-06T07:32:52;5.20;99.90
60309;DHT22;50313;52.894;6.492;2023-04-06T07:35:28;5.30;99.90
60309;DHT22;50313;52.894;6.492;2023-04-06T07:38:06;5.50;99.90
60309;DHT22;50313;52.894;6.492;2023-04-06T07:40:40;5.60;99.90
60309;DHT22;50313;52.894;6.492;2023-04-06T07:43:28;5.80;99.90
60309;DHT22;50313;52.894;6.492;2023-04-06T07:49:03;6.20;99.90
60309;DHT22;50313;52.894;6.492;2023-04-06T07:51:56;6.40;99.90
60309;DHT22;50313;52.894;6.492;2023-04-06T07:54:48;6.60;99.20
60309;DHT22;50313;52.894;6.492;2023-04-06T07:57:17;6.50;98.80
60309;DHT22;50313;52.894;6.492;2023-04-06T07:59:57;6.70;99.60
60309;DHT22;50313;52.894;6.492;2023-04-06T08:02:29;6.80;98.90
60309;DHT22;50313;52.894;6.492;2023-04-06T08:05:00;7.00;98.50
60309;DHT22;50313;52.894;6.492;2023-04-06T08:07:52;7.20;98.10
60309;DHT22;50313;52.894;6.492;2023-04-06T08:10:18;7.30;97.80
60309;DHT22;50313;52.894;6.492;2023-04-06T08:12:53;7.50;96.60
60309;DHT22;50313;52.894;6.492;2023-04-06T08:15:35;7.80;97.30
60309;DHT22;50313;52.894;6.492;2023-04-06T08:20:59;8.10;96.30
60309;DHT22;50313;52.894;6.492;2023-04-06T08:24:08;8.30;95.90
60309;DHT22;50313;52.894;6.492;2023-04-06T08:26:56;8.20;95.40
60309;DHT22;50313;52.894;6.492;2023-04-06T08:29:47;8.40;95.60
60309;DHT22;50313;52.894;6.492;2023-04-06T08:32:38;8.60;93.40
60309;DHT22;50313;52.894;6.492;2023-04-06T08:42:21;9.30;93.60
60309;DHT22;50313;52.894;6.492;2023-04-06T08:48:28;9.60;92.60
60309;DHT22;50313;52.894;6.492;2023-04-06T08:51:09;9.50;92.20
60309;DHT22;50313;52.894;6.492;2023-04-06T08:58:04;9.60;91.90
60309;DHT22;50313;52.894;6.492;2023-04-06T09:01:33;9.70;91.80
60309;DHT22;50313;52.894;6.492;2023-04-06T09:11:15;9.70;90.30
60309;DHT22;50313;52.894;6.492;2023-04-06T09:17:19;9.80;89.90
60309;DHT22;50313;52.894;6.492;2023-04-06T09:19:56;10.00;89.10
60309;DHT22;50313;52.894;6.492;2023-04-06T09:22:45;10.10;89.10
60309;DHT22;50313;52.894;6.492;2023-04-06T09:25:24;10.10;90.00
60309;DHT22;50313;52.894;6.492;2023-04-06T09:28:45;10.10;88.50
60309;DHT22;50313;52.894;6.492;2023-04-06T09:31:16;10.10;90.50
60309;DHT22;50313;52.894;6.492;2023-04-06T09:45:06;10.10;88.00
60309;DHT22;50313;52.894;6.492;2023-04-06T09:55:17;10.30;86.50
60309;DHT22;50313;52.894;6.492;2023-04-06T10:09:16;11.20;88.00
60309;DHT22;50313;52.894;6.492;2023-04-06T10:23:08;11.90;84.10
60309;DHT22;50313;52.894;6.492;2023-04-06T10:26:12;12.00;85.10
60309;DHT22;50313;52.894;6.492;2023-04-06T10:29:32;12.00;79.80
60309;DHT22;50313;52.894;6.492;2023-04-06T10:32:11;12.20;81.20
60309;DHT22;50313;52.894;6.492;2023-04-06T10:34:50;12.40;80.70
60309;DHT22;50313;52.894;6.492;2023-04-06T10:38:18;12.10;79.70
60309;DHT22;50313;52.894;6.492;2023-04-06T10:58:14;11.80;80.60
60309;DHT22;50313;52.894;6.492;2023-04-06T11:08:34;11.80;79.10
60309;DHT22;50313;52.894;6.492;2023-04-06T11:11:38;11.80;78.10
60309;DHT22;50313;52.894;6.492;2023-04-06T11:14:41;11.70;78.30
60309;DHT22;50313;52.894;6.492;2023-04-06T11:27:35;11.90;76.20
60309;DHT22;50313;52.894;6.492;2023-04-06T11:38:20;12.10;77.20
60309;DHT22;50313;52.894;6.492;2023-04-06T11:57:39;12.30;76.30
60309;DHT22;50313;52.894;6.492;2023-04-06T12:03:32;12.50;75.50
60309;DHT22;50313;52.894;6.492;2023-04-06T12:06:55;12.60;72.30
60309;DHT22;50313;52.894;6.492;2023-04-06T12:13:57;13.00;73.60
60309;DHT22;50313;52.894;6.492;2023-04-06T12:16:43;13.10;72.50
60309;DHT22;50313;52.894;6.492;2023-04-06T12:19:34;13.20;72.80
60309;DHT22;50313;52.894;6.492;2023-04-06T12:22:24;13.30;72.80
60309;DHT22;50313;52.894;6.492;2023-04-06T12:29:05;13.20;69.60
60309;DHT22;50313;52.894;6.492;2023-04-06T12:32:06;13.00;70.90
60309;DHT22;50313;52.894;6.492;2023-04-06T12:35:05;13.00;72.30
60309;DHT22;50313;52.894;6.492;2023-04-06T12:41:20;12.80;71.60
60309;DHT22;50313;52.894;6.492;2023-04-06T12:44:00;12.90;71.30
60309;DHT22;50313;52.894;6.492;2023-04-06T12:46:39;12.70;71.80
60309;DHT22;50313;52.894;6.492;2023-04-06T12:49:36;12.90;74.30
60309;DHT22;50313;52.894;6.492;2023-04-06T12:52:26;12.90;73.00
60309;DHT22;50313;52.894;6.492;2023-04-06T12:55:19;13.00;72.40
60309;DHT22;50313;52.894;6.492;2023-04-06T13:04:12;13.00;68.80
60309;DHT22;50313;52.894;6.492;2023-04-06T13:07:33;12.80;69.80
60309;DHT22;50313;52.894;6.492;2023-04-06T13:10:08;12.80;70.50
60309;DHT22;50313;52.894;6.492;2023-04-06T13:12:36;12.60;70.60
60309;DHT22;50313;52.894;6.492;2023-04-06T13:15:29;12.70;73.30
60309;DHT22;50313;52.894;6.492;2023-04-06T13:21:23;12.50;73.40
60309;DHT22;50313;52.894;6.492;2023-04-06T13:27:17;12.40;76.50
60309;DHT22;50313;52.894;6.492;2023-04-06T13:29:48;12.30;75.80
60309;DHT22;50313;52.894;6.492;2023-04-06T13:32:30;12.20;75.80
60309;DHT22;50313;52.894;6.492;2023-04-06T13:35:01;12.10;76.80
60309;DHT22;50313;52.894;6.492;2023-04-06T13:40:50;11.90;75.30
60309;DHT22;50313;52.894;6.492;2023-04-06T13:43:28;12.10;78.20
60309;DHT22;50313;52.894;6.492;2023-04-06T13:46:20;12.10;80.80
60309;DHT22;50313;52.894;6.492;2023-04-06T13:48:59;12.10;80.80
60309;DHT22;50313;52.894;6.492;2023-04-06T13:51:36;11.90;80.10
60309;DHT22;50313;52.894;6.492;2023-04-06T13:54:25;11.80;80.50
60309;DHT22;50313;52.894;6.492;2023-04-06T13:57:15;11.90;81.50
60309;DHT22;50313;52.894;6.492;2023-04-06T13:59:45;11.80;80.30
60309;DHT22;50313;52.894;6.492;2023-04-06T14:02:27;11.90;83.00
60309;DHT22;50313;52.894;6.492;2023-04-06T14:05:08;11.80;82.70
60309;DHT22;50313;52.894;6.492;2023-04-06T14:07:37;12.10;83.70
60309;DHT22;50313;52.894;6.492;2023-04-06T14:10:12;11.90;82.70
60309;DHT22;50313;52.894;6.492;2023-04-06T14:13:14;12.00;83.10
60309;DHT22;50313;52.894;6.492;2023-04-06T14:15:45;11.80;82.70
60309;DHT22;50313;52.894;6.492;2023-04-06T14:18:14;11.90;84.20
60309;DHT22;50313;52.894;6.492;2023-04-06T14:20:52;11.80;86.40
60309;DHT22;50313;52.894;6.492;2023-04-06T14:23:30;11.90;85.70
60309;DHT22;50313;52.894;6.492;2023-04-06T14:26:09;11.90;88.40
60309;DHT22;50313;52.894;6.492;2023-04-06T14:32:01;11.40;87.60
60309;DHT22;50313;52.894;6.492;2023-04-06T14:35:10;11.40;88.90
60309;DHT22;50313;52.894;6.492;2023-04-06T14:38:03;11.50;90.10
60309;DHT22;50313;52.894;6.492;2023-04-06T14:40:51;11.30;91.30
60309;DHT22;50313;52.894;6.492;2023-04-06T14:44:00;11.30;90.20
60309;DHT22;50313;52.894;6.492;2023-04-06T14:46:29;11.00;90.00
60309;DHT22;50313;52.894;6.492;2023-04-06T14:49:33;10.80;88.40
60309;DHT22;50313;52.894;6.492;2023-04-06T14:52:13;10.80;90.80
60309;DHT22;50313;52.894;6.492;2023-04-06T14:58:12;10.60;94.40
60309;DHT22;50313;52.894;6.492;2023-04-06T15:00:59;10.60;94.80
60309;DHT22;50313;52.894;6.492;2023-04-06T15:03:51;10.40;95.80
60309;DHT22;50313;52.894;6.492;2023-04-06T15:06:20;10.40;96.20
60309;DHT22;50313;52.894;6.492;2023-04-06T15:09:06;10.30;97.10
60309;DHT22;50313;52.894;6.492;2023-04-06T15:11:34;10.20;99.50
60309;DHT22;50313;52.894;6.492;2023-04-06T15:14:35;10.20;99.90
60309;DHT22;50313;52.894;6.492;2023-04-06T15:17:17;9.90;99.90
60309;DHT22;50313;52.894;6.492;2023-04-06T15:19:50;9.90;99.90
60309;DHT22;50313;52.894;6.492;2023-04-06T15:22:29;9.90;99.90
60309;DHT22;50313;52.894;6.492;2023-04-06T15:29:18;10.00;99.90
60309;DHT22;50313;52.894;6.492;2023-04-06T15:34:58;9.60;99.90
60309;DHT22;50313;52.894;6.492;2023-04-06T15:37:32;9.50;99.90
60309;DHT22;50313;52.894;6.492;2023-04-06T15:40:28;9.40;99.90
60309;DHT22;50313;52.894;6.492;2023-04-06T16:08:09;8.80;99.90
60309;DHT22;50313;52.894;6.492;2023-04-06T16:10:46;8.80;99.90
60309;DHT22;50313;52.894;6.492;2023-04-06T16:14:17;8.70;99.90
60309;DHT22;50313;52.894;6.492;2023-04-06T16:16:59;8.70;99.90
60309;DHT22;50313;52.894;6.492;2023-04-06T16:19:49;8.50;99.90
60309;DHT22;50313;52.894;6.492;2023-04-06T16:22:19;8.50;99.90
60309;DHT22;50313;52.894;6.492;2023-04-06T16:24:54;8.50;99.90
60309;DHT22;50313;52.894;6.492;2023-04-06T16:27:55;8.50;99.90
60309;DHT22;50313;52.894;6.492;2023-04-06T16:30:23;8.30;99.90
60309;DHT22;50313;52.894;6.492;2023-04-06T16:33:09;8.40;99.90
60309;DHT22;50313;52.894;6.492;2023-04-06T16:35:49;8.20;99.90
60309;DHT22;50313;52.894;6.492;2023-04-06T16:38:25;8.30;99.90
60309;DHT22;50313;52.894;6.492;2023-04-06T16:41:08;8.20;99.90
60309;DHT22;50313;52.894;6.492;2023-04-06T16:44:03;8.10;99.90
60309;DHT22;50313;52.894;6.492;2023-04-06T16:46:43;8.00;99.90
60309;DHT22;50313;52.894;6.492;2023-04-06T16:49:23;8.00;99.90
60309;DHT22;50313;52.894;6.492;2023-04-06T16:55:09;7.90;99.90
60309;DHT22;50313;52.894;6.492;2023-04-06T16:58:05;7.90;99.90
60309;DHT22;50313;52.894;6.492;2023-04-06T17:00:42;7.80;99.90
60309;DHT22;50313;52.894;6.492;2023-04-06T17:03:28;7.90;99.90
60309;DHT22;50313;52.894;6.492;2023-04-06T17:06:04;7.90;99.90
60309;DHT22;50313;52.894;6.492;2023-04-06T17:08:33;7.70;99.90
60309;DHT22;50313;52.894;6.492;2023-04-06T17:14:26;7.80;99.90
60309;DHT22;50313;52.894;6.492;2023-04-06T17:17:23;7.70;99.90
60309;DHT22;50313;52.894;6.492;2023-04-06T17:23:20;7.80;99.90
60309;DHT22;50313;52.894;6.492;2023-04-06T17:25:56;7.80;99.90
60309;DHT22;50313;52.894;6.492;2023-04-06T17:28:30;7.70;99.90
60309;DHT22;50313;52.894;6.492;2023-04-06T17:30:59;7.70;99.90
60309;DHT22;50313;52.894;6.492;2023-04-06T17:41:27;7.60;99.90
60309;DHT22;50313;52.894;6.492;2023-04-06T17:54:37;7.60;99.90
60309;DHT22;50313;52.894;6.492;2023-04-06T17:57:08;7.60;99.90
60309;DHT22;50313;52.894;6.492;2023-04-06T18:00:13;7.50;99.90
60309;DHT22;50313;52.894;6.492;2023-04-06T18:03:21;7.60;99.90
60309;DHT22;50313;52.894;6.492;2023-04-06T18:06:36;7.50;99.90
60309;DHT22;50313;52.894;6.492;2023-04-06T18:15:46;7.50;99.90
60309;DHT22;50313;52.894;6.492;2023-04-06T18:18:28;7.40;99.90
60309;DHT22;50313;52.894;6.492;2023-04-06T18:21:27;7.40;99.90
60309;DHT22;50313;52.894;6.492;2023-04-06T18:24:13;7.40;99.90
60309;DHT22;50313;52.894;6.492;2023-04-06T18:27:16;7.40;99.90
60309;DHT22;50313;52.894;6.492;2023-04-06T18:33:24;7.40;99.90
60309;DHT22;50313;52.894;6.492;2023-04-06T18:39:28;7.40;99.90
60309;DHT22;50313;52.894;6.492;2023-04-06T18:42:06;7.40;99.90
60309;DHT22;50313;52.894;6.492;2023-04-06T18:44:37;7.30;99.90
60309;DHT22;50313;52.894;6.492;2023-04-06T18:47:20;7.30;99.90
60309;DHT22;50313;52.894;6.492;2023-04-06T18:49:46;7.30;99.90
60309;DHT22;50313;52.894;6.492;2023-04-06T18:55:31;7.30;99.90
60309;DHT22;50313;52.894;6.492;2023-04-06T18:58:39;7.40;99.90
60309;DHT22;50313;52.894;6.492;2023-04-06T19:04:47;7.40;99.90
60309;DHT22;50313;52.894;6.492;2023-04-06T19:07:19;7.40;99.90
60309;DHT22;50313;52.894;6.492;2023-04-06T19:09:56;7.30;99.90
60309;DHT22;50313;52.894;6.492;2023-04-06T19:12:55;7.30;99.90
60309;DHT22;50313;52.894;6.492;2023-04-06T19:15:23;7.30;99.90
60309;DHT22;50313;52.894;6.492;2023-04-06T19:17:57;7.40;99.90
60309;DHT22;50313;52.894;6.492;2023-04-06T19:20:29;7.40;99.90
60309;DHT22;50313;52.894;6.492;2023-04-06T19:23:14;7.40;99.90
60309;DHT22;50313;52.894;6.492;2023-04-06T19:28:35;7.40;99.90
60309;DHT22;50313;52.894;6.492;2023-04-06T19:31:54;7.30;99.90
60309;DHT22;50313;52.894;6.492;2023-04-06T19:34:42;7.30;99.90
60309;DHT22;50313;52.894;6.492;2023-04-06T19:41:43;7.30;99.90
60309;DHT22;50313;52.894;6.492;2023-04-06T19:44:43;7.30;99.90
60309;DHT22;50313;52.894;6.492;2023-04-06T19:47:55;7.30;99.90
60309;DHT22;50313;52.894;6.492;2023-04-06T19:50:35;7.30;99.90
60309;DHT22;50313;52.894;6.492;2023-04-06T19:53:31;7.30;99.90
60309;DHT22;50313;52.894;6.492;2023-04-06T19:56:00;7.30;99.90
60309;DHT22;50313;52.894;6.492;2023-04-06T19:58:28;7.30;99.90
60309;DHT22;50313;52.894;6.492;2023-04-06T20:00:59;7.20;99.90
60309;DHT22;50313;52.894;6.492;2023-04-06T20:03:27;7.30;99.90
60309;DHT22;50313;52.894;6.492;2023-04-06T20:05:56;7.20;99.90
60309;DHT22;50313;52.894;6.492;2023-04-06T20:08:25;7.20;99.90
60309;DHT22;50313;52.894;6.492;2023-04-06T20:11:04;7.20;99.90
60309;DHT22;50313;52.894;6.492;2023-04-06T20:13:55;7.20;99.90
60309;DHT22;50313;52.894;6.492;2023-04-06T20:16:23;7.20;99.90
60309;DHT22;50313;52.894;6.492;2023-04-06T20:19:05;7.20;99.90
60309;DHT22;50313;52.894;6.492;2023-04-06T20:25:08;7.20;99.90
60309;DHT22;50313;52.894;6.492;2023-04-06T20:27:49;7.20;99.90
60309;DHT22;50313;52.894;6.492;2023-04-06T20:38:13;7.20;99.90
60309;DHT22;50313;52.894;6.492;2023-04-06T20:40:45;7.20;99.90
60309;DHT22;50313;52.894;6.492;2023-04-06T20:43:16;7.20;99.90
60309;DHT22;50313;52.894;6.492;2023-04-06T20:45:52;7.20;99.90
60309;DHT22;50313;52.894;6.492;2023-04-06T20:48:31;7.20;99.90
60309;DHT22;50313;52.894;6.492;2023-04-06T20:51:37;7.20;99.90
60309;DHT22;50313;52.894;6.492;2023-04-06T20:54:05;7.20;99.90
60309;DHT22;50313;52.894;6.492;2023-04-06T20:56:53;7.20;99.90
60309;DHT22;50313;52.894;6.492;2023-04-06T20:59:34;7.20;99.90
60309;DHT22;50313;52.894;6.492;2023-04-06T21:06:28;7.20;99.90
60309;DHT22;50313;52.894;6.492;2023-04-06T21:09:12;7.20;99.90
60309;DHT22;50313;52.894;6.492;2023-04-06T21:11:38;7.20;99.90
60309;DHT22;50313;52.894;6.492;2023-04-06T21:14:15;7.20;99.90
60309;DHT22;50313;52.894;6.492;2023-04-06T21:16:48;7.20;99.90
60309;DHT22;50313;52.894;6.492;2023-04-06T21:19:24;7.20;99.90
60309;DHT22;50313;52.894;6.492;2023-04-06T21:21:58;7.20;99.90
60309;DHT22;50313;52.894;6.492;2023-04-06T21:24:27;7.20;99.90
60309;DHT22;50313;52.894;6.492;2023-04-06T21:26:55;7.10;99.90
60309;DHT22;50313;52.894;6.492;2023-04-06T21:29:26;7.20;99.90
60309;DHT22;50313;52.894;6.492;2023-04-06T21:32:04;7.10;99.90
60309;DHT22;50313;52.894;6.492;2023-04-06T21:34:35;7.10;99.90
60309;DHT22;50313;52.894;6.492;2023-04-06T21:37:03;7.20;99.90
60309;DHT22;50313;52.894;6.492;2023-04-06T21:39:32;7.10;99.90
60309;DHT22;50313;52.894;6.492;2023-04-06T21:42:12;7.00;99.90
60309;DHT22;50313;52.894;6.492;2023-04-06T21:44:52;7.10;99.90
60309;DHT22;50313;52.894;6.492;2023-04-06T21:47:25;7.10;99.90
60309;DHT22;50313;52.894;6.492;2023-04-06T21:50:01;7.10;99.90
60309;DHT22;50313;52.894;6.492;2023-04-06T21:53:10;7.10;99.90
60309;DHT22;50313;52.894;6.492;2023-04-06T21:55:48;7.10;99.90
60309;DHT22;50313;52.894;6.492;2023-04-06T21:58:14;7.10;99.90
60309;DHT22;50313;52.894;6.492;2023-04-06T22:00:42;7.10;99.90
60309;DHT22;50313;52.894;6.492;2023-04-06T22:03:21;7.20;99.90
60309;DHT22;50313;52.894;6.492;2023-04-06T22:05:51;7.10;99.90
60309;DHT22;50313;52.894;6.492;2023-04-06T22:08:19;7.10;99.90
60309;DHT22;50313;52.894;6.492;2023-04-06T22:10:55;7.10;99.90
60309;DHT22;50313;52.894;6.492;2023-04-06T22:13:45;7.10;99.90
60309;DHT22;50313;52.894;6.492;2023-04-06T22:16:19;7.10;99.90
60309;DHT22;50313;52.894;6.492;2023-04-06T22:18:49;7.10;99.90
60309;DHT22;50313;52.894;6.492;2023-04-06T22:21:26;7.10;99.90
60309;DHT22;50313;52.894;6.492;2023-04-06T22:24:17;7.10;99.90
60309;DHT22;50313;52.894;6.492;2023-04-06T22:26:46;7.10;99.90
60309;DHT22;50313;52.894;6.492;2023-04-06T22:29:12;7.00;99.90
60309;DHT22;50313;52.894;6.492;2023-04-06T22:31:48;7.00;99.90
60309;DHT22;50313;52.894;6.492;2023-04-06T22:34:29;7.00;99.90
60309;DHT22;50313;52.894;6.492;2023-04-06T22:36:58;7.00;99.90
60309;DHT22;50313;52.894;6.492;2023-04-06T22:39:26;7.00;99.90
60309;DHT22;50313;52.894;6.492;2023-04-06T22:42:02;7.10;99.90
60309;DHT22;50313;52.894;6.492;2023-04-06T22:44:36;7.00;99.90
60309;DHT22;50313;52.894;6.492;2023-04-06T22:50:14;7.00;99.90
60309;DHT22;50313;52.894;6.492;2023-04-06T22:53:26;7.00;99.90